»·PEaware :: N2938U KRNM-KSEE

N2938U :: KRNM-KSEE

FLIGHT INFORMATION

Flight Status: Arrived
Operator: Privately registered:
United States
More flights under this callsign
Pilot: Scott H. (20221)
Aircraft: CESSNA 172 SKYHAWK
(C172)
More flights by this aircraft type
Origin: KRNM Ramona
United States
Destination: KSEE Gillespie
United States
More flights between these airports :: More routes between these airports
Route: +ROBNN V208 OCN V23 MZB
File this flight plan on PilotEdge
Remarks:
Altitude:
(Current/Filed)
4,000ft
Speed:
(Current/Filed)
115kts
Departed: 01-Oct-20 07:41 PM
Arrived: 01-Oct-20 08:17 PM
Distance/Time
Traveled:
13nm/0:36
Distance/Time
To Go:
Arrived

Flight Plot

Page will automatically refresh every two minutes.

Flight plan parsing failed; only flown route is shown


Map Options




Map Legend


Flown Route
Filed Route
Departure Airport
Arrival Airport
Navaid (VOR, NDB)
Fix

Horizontal Profiles

Position Reports

Time Latitude Longitude Heading Altitude Ground
Speed
01-Oct-20 19:14 33.039293 -116.908029 275 1399ft 0kts
01-Oct-20 19:15 33.039293 -116.908029 275 1399ft 0kts
01-Oct-20 19:15 33.039293 -116.908029 275 1399ft 0kts
01-Oct-20 19:16 33.039293 -116.908029 275 1399ft 0kts
01-Oct-20 19:18 33.039293 -116.908029 275 1399ft 0kts
01-Oct-20 19:18 33.039293 -116.908029 275 1399ft 0kts
01-Oct-20 19:19 33.039293 -116.908029 275 1399ft 0kts
01-Oct-20 19:21 33.039293 -116.908029 275 1399ft 0kts
01-Oct-20 19:21 33.039293 -116.908029 275 1399ft 0kts
01-Oct-20 19:22 33.039293 -116.908029 275 1399ft 0kts
01-Oct-20 19:23 33.039293 -116.908029 275 1399ft 0kts
01-Oct-20 19:24 33.039293 -116.908029 275 1399ft 0kts
01-Oct-20 19:25 33.039293 -116.908029 275 1399ft 0kts
01-Oct-20 19:26 33.039293 -116.908029 275 1399ft 0kts
01-Oct-20 19:27 33.039293 -116.908029 275 1399ft 0kts
01-Oct-20 19:28 33.039293 -116.908029 275 1399ft 0kts
01-Oct-20 19:29 33.039293 -116.908029 275 1399ft 0kts
01-Oct-20 19:30 33.039293 -116.908029 275 1399ft 0kts
01-Oct-20 19:31 33.039293 -116.908029 275 1399ft 0kts
01-Oct-20 19:32 33.039293 -116.908029 275 1399ft 0kts
01-Oct-20 19:33 33.039293 -116.908029 275 1399ft 0kts
01-Oct-20 19:34 33.039293 -116.908029 275 1399ft 0kts
01-Oct-20 19:35 33.039293 -116.908029 275 1399ft 0kts
01-Oct-20 19:36 33.039293 -116.908029 275 1399ft 0kts
01-Oct-20 19:37 33.039293 -116.908029 275 1399ft 0kts
01-Oct-20 19:38 33.039008 -116.908497 191 1399ft 1kts
01-Oct-20 19:39 33.038352 -116.907249 191 1399ft 0kts
01-Oct-20 19:40 33.039442 -116.916668 277 1547ft 82kts
01-Oct-20 19:41 33.044666 -116.946272 273 2334ft 94kts
01-Oct-20 19:42 33.049743 -116.977642 272 3054ft 95kts
01-Oct-20 19:43 33.054141 -117.009371 272 3746ft 97kts
01-Oct-20 19:44 33.059324 -117.041193 279 4412ft 97kts
01-Oct-20 19:45 33.066679 -117.072414 309 4976ft 105kts
01-Oct-20 19:46 33.096727 -117.079167 347 5132ft 110kts
01-Oct-20 19:47 33.127918 -117.082490 351 5147ft 114kts
01-Oct-20 19:48 33.159751 -117.086387 344 5195ft 117kts
01-Oct-20 19:49 33.191577 -117.097172 338 5101ft 117kts
01-Oct-20 19:50 33.214241 -117.116690 267 5141ft 104kts
01-Oct-20 19:51 33.210670 -117.153510 269 5140ft 116kts
01-Oct-20 19:52 33.214348 -117.191594 278 4934ft 119kts
01-Oct-20 19:53 33.220318 -117.226800 277 5040ft 105kts
01-Oct-20 19:54 33.223133 -117.261385 276 5072ft 105kts
01-Oct-20 19:55 33.229685 -117.295172 269 5100ft 103kts
01-Oct-20 19:56 33.231256 -117.329682 279 5110ft 106kts
01-Oct-20 19:57 33.212383 -117.345117 174 5093ft 118kts
01-Oct-20 19:58 33.180952 -117.336674 168 5158ft 116kts
01-Oct-20 19:59 33.149019 -117.329835 171 5122ft 118kts
01-Oct-20 20:00 33.117042 -117.329249 185 5108ft 115kts
01-Oct-20 20:01 33.085312 -117.329619 193 5122ft 113kts
01-Oct-20 20:02 33.053682 -117.334014 192 5123ft 111kts
01-Oct-20 20:03 33.022822 -117.325224 154 4870ft 123kts
01-Oct-20 20:04 32.993825 -117.304703 156 4573ft 116kts
01-Oct-20 20:05 32.964572 -117.286205 152 4211ft 120kts
01-Oct-20 20:06 32.936077 -117.266607 154 3938ft 118kts
01-Oct-20 20:07 32.906595 -117.250414 167 3685ft 113kts
01-Oct-20 20:08 32.877911 -117.232527 163 3430ft 115kts
01-Oct-20 20:09 32.860564 -117.201681 95 3165ft 125kts
01-Oct-20 20:10 32.856709 -117.160692 99 2921ft 126kts
01-Oct-20 20:11 32.851649 -117.119230 105 2609ft 124kts
01-Oct-20 20:12 32.844952 -117.082684 110 2520ft 105kts
01-Oct-20 20:13 32.838265 -117.048518 96 2493ft 106kts
01-Oct-20 20:14 32.834942 -117.009585 106 1044ft 131kts
01-Oct-20 20:15 32.829274 -116.980147 105 430ft 65kts
01-Oct-20 20:16 32.827249 -116.971805 173 392ft 0kts
01-Oct-20 20:17 32.825128 -116.971806 180 392ft 18kts

Navigation Log

Ident Type
Flight plan parsing failed, navigation log unavailable